sensor_id;sensor_type;location;lat;lon;timestamp;P1;durP1;ratioP1;P2;durP2;ratioP2
32236;SDS011;18726;44.732;10.550;2024-02-16T00:01:50;50.55;;;43.13;;
32236;SDS011;18726;44.732;10.550;2024-02-16T00:04:53;51.75;;;40.97;;
32236;SDS011;18726;44.732;10.550;2024-02-16T00:07:57;49.33;;;40.30;;
32236;SDS011;18726;44.732;10.550;2024-02-16T00:11:00;45.72;;;40.13;;
32236;SDS011;18726;44.732;10.550;2024-02-16T00:14:04;55.90;;;41.80;;
32236;SDS011;18726;44.732;10.550;2024-02-16T00:17:08;55.35;;;40.25;;
32236;SDS011;18726;44.732;10.550;2024-02-16T00:20:13;56.67;;;44.30;;
32236;SDS011;18726;44.732;10.550;2024-02-16T00:23:17;51.40;;;44.13;;
32236;SDS011;18726;44.732;10.550;2024-02-16T00:26:25;52.03;;;44.22;;
32236;SDS011;18726;44.732;10.550;2024-02-16T00:29:29;62.97;;;46.17;;
32236;SDS011;18726;44.732;10.550;2024-02-16T00:32:32;54.55;;;42.65;;
32236;SDS011;18726;44.732;10.550;2024-02-16T00:35:36;48.03;;;41.42;;
32236;SDS011;18726;44.732;10.550;2024-02-16T00:38:40;52.20;;;42.10;;
32236;SDS011;18726;44.732;10.550;2024-02-16T00:41:43;51.88;;;40.92;;
32236;SDS011;18726;44.732;10.550;2024-02-16T00:44:47;48.95;;;39.90;;
32236;SDS011;18726;44.732;10.550;2024-02-16T00:47:51;34.95;;;29.85;;
32236;SDS011;18726;44.732;10.550;2024-02-16T00:50:55;36.75;;;31.25;;
32236;SDS011;18726;44.732;10.550;2024-02-16T00:53:58;45.20;;;35.88;;
32236;SDS011;18726;44.732;10.550;2024-02-16T00:57:01;44.33;;;36.15;;
32236;SDS011;18726;44.732;10.550;2024-02-16T01:00:06;39.63;;;32.28;;
32236;SDS011;18726;44.732;10.550;2024-02-16T01:03:10;31.38;;;27.90;;
32236;SDS011;18726;44.732;10.550;2024-02-16T01:06:16;37.80;;;32.22;;
32236;SDS011;18726;44.732;10.550;2024-02-16T01:09:19;38.90;;;31.67;;
32236;SDS011;18726;44.732;10.550;2024-02-16T01:12:23;43.30;;;34.80;;
32236;SDS011;18726;44.732;10.550;2024-02-16T01:15:26;40.75;;;31.95;;
32236;SDS011;18726;44.732;10.550;2024-02-16T01:18:30;38.28;;;34.22;;
32236;SDS011;18726;44.732;10.550;2024-02-16T01:21:35;45.22;;;36.38;;
32236;SDS011;18726;44.732;10.550;2024-02-16T01:24:39;30.25;;;27.10;;
32236;SDS011;18726;44.732;10.550;2024-02-16T01:27:43;41.30;;;30.33;;
32236;SDS011;18726;44.732;10.550;2024-02-16T01:30:47;38.45;;;31.17;;
32236;SDS011;18726;44.732;10.550;2024-02-16T01:33:50;34.13;;;27.48;;
32236;SDS011;18726;44.732;10.550;2024-02-16T01:36:55;34.78;;;27.13;;
32236;SDS011;18726;44.732;10.550;2024-02-16T01:40:00;32.45;;;25.13;;
32236;SDS011;18726;44.732;10.550;2024-02-16T01:43:05;45.50;;;36.15;;
32236;SDS011;18726;44.732;10.550;2024-02-16T01:46:08;43.08;;;35.58;;
32236;SDS011;18726;44.732;10.550;2024-02-16T01:49:13;32.72;;;29.17;;
32236;SDS011;18726;44.732;10.550;2024-02-16T01:52:18;31.42;;;27.65;;
32236;SDS011;18726;44.732;10.550;2024-02-16T01:55:22;39.58;;;30.15;;
32236;SDS011;18726;44.732;10.550;2024-02-16T01:58:33;27.98;;;22.90;;
32236;SDS011;18726;44.732;10.550;2024-02-16T02:01:37;29.85;;;26.50;;
32236;SDS011;18726;44.732;10.550;2024-02-16T02:04:40;28.52;;;25.02;;
32236;SDS011;18726;44.732;10.550;2024-02-16T02:07:44;25.60;;;22.90;;
32236;SDS011;18726;44.732;10.550;2024-02-16T02:10:48;29.13;;;24.38;;
32236;SDS011;18726;44.732;10.550;2024-02-16T02:13:52;30.92;;;25.33;;
32236;SDS011;18726;44.732;10.550;2024-02-16T02:16:56;31.92;;;24.50;;
32236;SDS011;18726;44.732;10.550;2024-02-16T02:20:00;36.28;;;29.80;;
32236;SDS011;18726;44.732;10.550;2024-02-16T02:23:04;35.25;;;29.67;;
32236;SDS011;18726;44.732;10.550;2024-02-16T02:26:08;29.17;;;25.92;;
32236;SDS011;18726;44.732;10.550;2024-02-16T02:29:11;36.83;;;29.42;;
32236;SDS011;18726;44.732;10.550;2024-02-16T02:32:15;41.15;;;34.17;;
32236;SDS011;18726;44.732;10.550;2024-02-16T02:35:18;44.70;;;36.33;;
32236;SDS011;18726;44.732;10.550;2024-02-16T02:38:22;42.65;;;37.75;;
32236;SDS011;18726;44.732;10.550;2024-02-16T02:41:25;33.47;;;27.35;;
32236;SDS011;18726;44.732;10.550;2024-02-16T02:44:29;29.40;;;25.38;;
32236;SDS011;18726;44.732;10.550;2024-02-16T02:47:34;29.27;;;26.20;;
32236;SDS011;18726;44.732;10.550;2024-02-16T02:50:38;28.00;;;24.92;;
32236;SDS011;18726;44.732;10.550;2024-02-16T02:53:42;33.30;;;27.88;;
32236;SDS011;18726;44.732;10.550;2024-02-16T02:56:46;30.33;;;26.20;;
32236;SDS011;18726;44.732;10.550;2024-02-16T02:59:49;37.03;;;31.08;;
32236;SDS011;18726;44.732;10.550;2024-02-16T03:02:53;35.42;;;31.00;;
32236;SDS011;18726;44.732;10.550;2024-02-16T03:05:56;29.35;;;25.55;;
32236;SDS011;18726;44.732;10.550;2024-02-16T03:09:00;36.38;;;29.92;;
32236;SDS011;18726;44.732;10.550;2024-02-16T03:12:04;45.72;;;36.90;;
32236;SDS011;18726;44.732;10.550;2024-02-16T03:15:08;28.25;;;25.23;;
32236;SDS011;18726;44.732;10.550;2024-02-16T03:18:12;28.02;;;24.02;;
32236;SDS011;18726;44.732;10.550;2024-02-16T03:21:16;27.80;;;23.15;;
32236;SDS011;18726;44.732;10.550;2024-02-16T03:24:19;32.65;;;29.15;;
32236;SDS011;18726;44.732;10.550;2024-02-16T03:27:23;41.40;;;32.15;;
32236;SDS011;18726;44.732;10.550;2024-02-16T03:30:26;26.92;;;24.13;;
32236;SDS011;18726;44.732;10.550;2024-02-16T03:33:31;27.15;;;23.00;;
32236;SDS011;18726;44.732;10.550;2024-02-16T03:36:34;39.33;;;30.50;;
32236;SDS011;18726;44.732;10.550;2024-02-16T03:39:38;40.30;;;32.58;;
32236;SDS011;18726;44.732;10.550;2024-02-16T03:42:41;44.13;;;32.78;;
32236;SDS011;18726;44.732;10.550;2024-02-16T03:45:45;43.92;;;36.30;;
32236;SDS011;18726;44.732;10.550;2024-02-16T03:48:48;45.05;;;35.47;;
32236;SDS011;18726;44.732;10.550;2024-02-16T03:51:52;45.95;;;37.65;;
32236;SDS011;18726;44.732;10.550;2024-02-16T03:54:56;49.38;;;39.53;;
32236;SDS011;18726;44.732;10.550;2024-02-16T03:57:59;51.97;;;37.55;;
32236;SDS011;18726;44.732;10.550;2024-02-16T04:01:03;35.83;;;28.85;;
32236;SDS011;18726;44.732;10.550;2024-02-16T04:04:09;38.95;;;33.20;;
32236;SDS011;18726;44.732;10.550;2024-02-16T04:07:13;35.63;;;30.35;;
32236;SDS011;18726;44.732;10.550;2024-02-16T04:10:16;37.90;;;31.80;;
32236;SDS011;18726;44.732;10.550;2024-02-16T04:13:19;42.33;;;32.75;;
32236;SDS011;18726;44.732;10.550;2024-02-16T04:16:23;35.80;;;29.33;;
32236;SDS011;18726;44.732;10.550;2024-02-16T04:19:28;41.47;;;32.53;;
32236;SDS011;18726;44.732;10.550;2024-02-16T04:22:32;31.80;;;27.77;;
32236;SDS011;18726;44.732;10.550;2024-02-16T04:25:40;27.42;;;24.50;;
32236;SDS011;18726;44.732;10.550;2024-02-16T04:28:44;35.45;;;29.58;;
32236;SDS011;18726;44.732;10.550;2024-02-16T04:31:47;35.90;;;31.08;;
32236;SDS011;18726;44.732;10.550;2024-02-16T04:34:52;33.40;;;26.45;;
32236;SDS011;18726;44.732;10.550;2024-02-16T04:37:56;40.13;;;35.55;;
32236;SDS011;18726;44.732;10.550;2024-02-16T04:40:59;45.00;;;36.58;;
32236;SDS011;18726;44.732;10.550;2024-02-16T04:44:02;32.10;;;26.73;;
32236;SDS011;18726;44.732;10.550;2024-02-16T04:47:06;46.60;;;37.42;;
32236;SDS011;18726;44.732;10.550;2024-02-16T04:50:10;29.75;;;24.75;;
32236;SDS011;18726;44.732;10.550;2024-02-16T04:53:14;41.13;;;33.67;;
32236;SDS011;18726;44.732;10.550;2024-02-16T04:56:18;52.55;;;41.45;;
32236;SDS011;18726;44.732;10.550;2024-02-16T04:59:22;43.38;;;35.90;;
32236;SDS011;18726;44.732;10.550;2024-02-16T05:02:26;37.60;;;32.17;;
32236;SDS011;18726;44.732;10.550;2024-02-16T05:05:29;48.30;;;39.10;;
32236;SDS011;18726;44.732;10.550;2024-02-16T05:08:36;49.33;;;40.30;;
32236;SDS011;18726;44.732;10.550;2024-02-16T05:11:39;34.08;;;29.38;;
32236;SDS011;18726;44.732;10.550;2024-02-16T05:14:43;35.92;;;29.17;;
32236;SDS011;18726;44.732;10.550;2024-02-16T05:17:51;35.08;;;29.05;;
32236;SDS011;18726;44.732;10.550;2024-02-16T05:20:55;47.75;;;36.90;;
32236;SDS011;18726;44.732;10.550;2024-02-16T05:23:59;51.03;;;42.22;;
32236;SDS011;18726;44.732;10.550;2024-02-16T05:27:02;57.70;;;44.40;;
32236;SDS011;18726;44.732;10.550;2024-02-16T05:30:08;57.20;;;45.80;;
32236;SDS011;18726;44.732;10.550;2024-02-16T05:33:13;56.47;;;43.10;;
32236;SDS011;18726;44.732;10.550;2024-02-16T05:36:20;50.88;;;41.85;;
32236;SDS011;18726;44.732;10.550;2024-02-16T05:39:27;51.45;;;42.63;;
32236;SDS011;18726;44.732;10.550;2024-02-16T05:42:34;49.67;;;42.25;;
32236;SDS011;18726;44.732;10.550;2024-02-16T05:45:39;51.90;;;43.20;;
32236;SDS011;18726;44.732;10.550;2024-02-16T05:48:44;58.58;;;49.80;;
32236;SDS011;18726;44.732;10.550;2024-02-16T05:51:48;53.83;;;42.50;;
32236;SDS011;18726;44.732;10.550;2024-02-16T05:58:14;49.60;;;38.92;;
32236;SDS011;18726;44.732;10.550;2024-02-16T06:01:18;51.53;;;40.63;;
32236;SDS011;18726;44.732;10.550;2024-02-16T06:04:22;47.50;;;40.03;;
32236;SDS011;18726;44.732;10.550;2024-02-16T06:07:26;51.65;;;41.85;;
32236;SDS011;18726;44.732;10.550;2024-02-16T06:10:29;42.15;;;36.90;;
32236;SDS011;18726;44.732;10.550;2024-02-16T06:13:33;35.65;;;30.08;;
32236;SDS011;18726;44.732;10.550;2024-02-16T06:16:36;44.80;;;37.13;;
32236;SDS011;18726;44.732;10.550;2024-02-16T06:19:43;44.42;;;36.40;;
32236;SDS011;18726;44.732;10.550;2024-02-16T06:22:47;49.60;;;38.88;;
32236;SDS011;18726;44.732;10.550;2024-02-16T06:25:50;68.75;;;45.90;;
32236;SDS011;18726;44.732;10.550;2024-02-16T06:28:54;55.58;;;43.30;;
32236;SDS011;18726;44.732;10.550;2024-02-16T06:31:58;54.22;;;42.75;;
32236;SDS011;18726;44.732;10.550;2024-02-16T06:35:01;56.67;;;42.63;;
32236;SDS011;18726;44.732;10.550;2024-02-16T06:38:05;61.20;;;48.00;;
32236;SDS011;18726;44.732;10.550;2024-02-16T06:41:08;58.10;;;49.03;;
32236;SDS011;18726;44.732;10.550;2024-02-16T06:44:13;59.17;;;46.38;;
32236;SDS011;18726;44.732;10.550;2024-02-16T06:47:17;56.15;;;45.70;;
32236;SDS011;18726;44.732;10.550;2024-02-16T06:50:23;44.85;;;39.95;;
32236;SDS011;18726;44.732;10.550;2024-02-16T06:53:26;50.35;;;41.53;;
32236;SDS011;18726;44.732;10.550;2024-02-16T06:56:30;55.40;;;46.38;;
32236;SDS011;18726;44.732;10.550;2024-02-16T06:59:34;67.80;;;50.58;;
32236;SDS011;18726;44.732;10.550;2024-02-16T07:02:38;58.85;;;45.72;;
32236;SDS011;18726;44.732;10.550;2024-02-16T07:05:44;47.53;;;37.22;;
32236;SDS011;18726;44.732;10.550;2024-02-16T07:08:47;41.72;;;35.35;;
32236;SDS011;18726;44.732;10.550;2024-02-16T07:11:51;41.70;;;33.40;;
32236;SDS011;18726;44.732;10.550;2024-02-16T07:14:55;43.88;;;37.72;;
32236;SDS011;18726;44.732;10.550;2024-02-16T07:17:59;46.72;;;38.15;;
32236;SDS011;18726;44.732;10.550;2024-02-16T07:21:04;47.28;;;35.83;;
32236;SDS011;18726;44.732;10.550;2024-02-16T07:24:07;45.03;;;37.90;;
32236;SDS011;18726;44.732;10.550;2024-02-16T07:27:12;42.05;;;36.50;;
32236;SDS011;18726;44.732;10.550;2024-02-16T07:30:16;46.28;;;34.17;;
32236;SDS011;18726;44.732;10.550;2024-02-16T07:33:20;39.75;;;34.17;;
32236;SDS011;18726;44.732;10.550;2024-02-16T07:36:24;46.30;;;36.28;;
32236;SDS011;18726;44.732;10.550;2024-02-16T07:39:28;40.58;;;33.97;;
32236;SDS011;18726;44.732;10.550;2024-02-16T07:42:32;45.83;;;38.40;;
32236;SDS011;18726;44.732;10.550;2024-02-16T07:45:36;52.13;;;43.35;;
32236;SDS011;18726;44.732;10.550;2024-02-16T07:48:39;157.70;;;127.97;;
32236;SDS011;18726;44.732;10.550;2024-02-16T07:51:43;158.18;;;126.40;;
32236;SDS011;18726;44.732;10.550;2024-02-16T07:54:47;106.25;;;84.53;;
32236;SDS011;18726;44.732;10.550;2024-02-16T07:57:51;52.45;;;43.40;;
32236;SDS011;18726;44.732;10.550;2024-02-16T08:00:55;57.60;;;48.40;;
32236;SDS011;18726;44.732;10.550;2024-02-16T08:03:58;56.08;;;48.17;;
32236;SDS011;18726;44.732;10.550;2024-02-16T08:07:02;65.68;;;55.47;;
32236;SDS011;18726;44.732;10.550;2024-02-16T08:10:06;58.05;;;51.80;;
32236;SDS011;18726;44.732;10.550;2024-02-16T08:13:10;68.43;;;59.28;;
32236;SDS011;18726;44.732;10.550;2024-02-16T08:16:13;77.55;;;60.05;;
32236;SDS011;18726;44.732;10.550;2024-02-16T08:19:18;65.63;;;53.67;;
32236;SDS011;18726;44.732;10.550;2024-02-16T08:22:21;586.88;;;446.50;;
32236;SDS011;18726;44.732;10.550;2024-02-16T08:25:25;135.15;;;103.50;;
32236;SDS011;18726;44.732;10.550;2024-02-16T08:28:30;94.47;;;75.50;;
32236;SDS011;18726;44.732;10.550;2024-02-16T08:31:34;83.80;;;70.18;;
32236;SDS011;18726;44.732;10.550;2024-02-16T08:34:37;83.50;;;63.55;;
32236;SDS011;18726;44.732;10.550;2024-02-16T08:37:41;73.35;;;61.22;;
32236;SDS011;18726;44.732;10.550;2024-02-16T08:40:45;68.18;;;60.75;;
32236;SDS011;18726;44.732;10.550;2024-02-16T08:43:49;68.30;;;51.05;;
32236;SDS011;18726;44.732;10.550;2024-02-16T08:46:53;65.78;;;54.97;;
32236;SDS011;18726;44.732;10.550;2024-02-16T08:49:58;68.47;;;56.30;;
32236;SDS011;18726;44.732;10.550;2024-02-16T08:53:02;65.57;;;58.47;;
32236;SDS011;18726;44.732;10.550;2024-02-16T08:56:09;88.22;;;77.93;;
32236;SDS011;18726;44.732;10.550;2024-02-16T08:59:16;59.50;;;52.88;;
32236;SDS011;18726;44.732;10.550;2024-02-16T09:02:20;63.63;;;52.55;;
32236;SDS011;18726;44.732;10.550;2024-02-16T09:05:23;65.45;;;53.75;;
32236;SDS011;18726;44.732;10.550;2024-02-16T09:08:27;54.95;;;47.92;;
32236;SDS011;18726;44.732;10.550;2024-02-16T09:11:33;63.42;;;50.10;;
32236;SDS011;18726;44.732;10.550;2024-02-16T09:14:37;53.75;;;47.95;;
32236;SDS011;18726;44.732;10.550;2024-02-16T09:17:41;55.50;;;48.72;;
32236;SDS011;18726;44.732;10.550;2024-02-16T09:20:45;54.65;;;48.72;;
32236;SDS011;18726;44.732;10.550;2024-02-16T09:23:49;56.85;;;48.50;;
32236;SDS011;18726;44.732;10.550;2024-02-16T09:26:52;52.75;;;46.90;;
32236;SDS011;18726;44.732;10.550;2024-02-16T09:29:55;57.67;;;45.95;;
32236;SDS011;18726;44.732;10.550;2024-02-16T09:32:59;52.40;;;46.67;;
32236;SDS011;18726;44.732;10.550;2024-02-16T09:36:02;55.40;;;48.97;;
32236;SDS011;18726;44.732;10.550;2024-02-16T09:39:08;54.17;;;48.30;;
32236;SDS011;18726;44.732;10.550;2024-02-16T09:42:11;56.72;;;48.92;;
32236;SDS011;18726;44.732;10.550;2024-02-16T09:45:15;52.30;;;46.42;;
32236;SDS011;18726;44.732;10.550;2024-02-16T09:48:19;55.53;;;46.55;;
32236;SDS011;18726;44.732;10.550;2024-02-16T09:51:25;59.15;;;47.15;;
32236;SDS011;18726;44.732;10.550;2024-02-16T09:54:29;52.42;;;46.72;;
32236;SDS011;18726;44.732;10.550;2024-02-16T09:57:37;60.78;;;46.40;;
32236;SDS011;18726;44.732;10.550;2024-02-16T10:00:41;52.97;;;47.40;;
32236;SDS011;18726;44.732;10.550;2024-02-16T10:03:45;51.08;;;45.85;;
32236;SDS011;18726;44.732;10.550;2024-02-16T10:06:49;57.75;;;48.97;;
32236;SDS011;18726;44.732;10.550;2024-02-16T10:09:53;51.30;;;45.80;;
32236;SDS011;18726;44.732;10.550;2024-02-16T10:13:03;51.38;;;45.95;;
32236;SDS011;18726;44.732;10.550;2024-02-16T10:16:09;53.97;;;48.33;;
32236;SDS011;18726;44.732;10.550;2024-02-16T10:19:17;58.85;;;52.70;;
32236;SDS011;18726;44.732;10.550;2024-02-16T10:22:20;57.45;;;51.40;;
32236;SDS011;18726;44.732;10.550;2024-02-16T10:25:26;59.25;;;52.95;;
32236;SDS011;18726;44.732;10.550;2024-02-16T10:28:29;60.13;;;53.80;;
32236;SDS011;18726;44.732;10.550;2024-02-16T10:31:34;62.78;;;55.67;;
32236;SDS011;18726;44.732;10.550;2024-02-16T10:34:38;63.58;;;56.22;;
32236;SDS011;18726;44.732;10.550;2024-02-16T10:37:44;62.67;;;54.95;;
32236;SDS011;18726;44.732;10.550;2024-02-16T10:40:49;74.75;;;66.75;;
32236;SDS011;18726;44.732;10.550;2024-02-16T10:43:55;76.97;;;67.60;;
32236;SDS011;18726;44.732;10.550;2024-02-16T10:46:59;74.45;;;66.28;;
32236;SDS011;18726;44.732;10.550;2024-02-16T10:50:03;72.72;;;64.90;;
32236;SDS011;18726;44.732;10.550;2024-02-16T10:53:19;79.35;;;71.40;;
32236;SDS011;18726;44.732;10.550;2024-02-16T10:56:31;77.60;;;69.35;;
32236;SDS011;18726;44.732;10.550;2024-02-16T10:59:42;75.90;;;67.88;;
32236;SDS011;18726;44.732;10.550;2024-02-16T11:02:58;76.82;;;68.05;;
32236;SDS011;18726;44.732;10.550;2024-02-16T11:06:17;76.28;;;68.30;;
32236;SDS011;18726;44.732;10.550;2024-02-16T11:12:33;71.68;;;63.67;;
32236;SDS011;18726;44.732;10.550;2024-02-16T11:15:38;75.80;;;67.55;;
32236;SDS011;18726;44.732;10.550;2024-02-16T11:18:42;69.20;;;61.65;;
32236;SDS011;18726;44.732;10.550;2024-02-16T11:21:57;77.45;;;69.13;;
32236;SDS011;18726;44.732;10.550;2024-02-16T11:25:04;70.70;;;62.88;;
32236;SDS011;18726;44.732;10.550;2024-02-16T11:28:08;76.13;;;68.35;;
32236;SDS011;18726;44.732;10.550;2024-02-16T11:31:13;74.72;;;66.65;;
32236;SDS011;18726;44.732;10.550;2024-02-16T11:34:23;85.22;;;76.35;;
32236;SDS011;18726;44.732;10.550;2024-02-16T11:37:29;80.38;;;71.90;;
32236;SDS011;18726;44.732;10.550;2024-02-16T11:40:33;82.30;;;73.30;;
32236;SDS011;18726;44.732;10.550;2024-02-16T11:43:38;81.47;;;72.97;;
32236;SDS011;18726;44.732;10.550;2024-02-16T11:46:42;78.05;;;68.93;;
32236;SDS011;18726;44.732;10.550;2024-02-16T11:49:46;80.35;;;71.68;;
32236;SDS011;18726;44.732;10.550;2024-02-16T11:52:50;75.75;;;67.78;;
32236;SDS011;18726;44.732;10.550;2024-02-16T11:55:55;82.40;;;71.20;;
32236;SDS011;18726;44.732;10.550;2024-02-16T11:58:59;82.10;;;73.40;;
32236;SDS011;18726;44.732;10.550;2024-02-16T12:02:04;93.70;;;78.63;;
32236;SDS011;18726;44.732;10.550;2024-02-16T12:05:09;82.88;;;74.05;;
32236;SDS011;18726;44.732;10.550;2024-02-16T12:08:13;82.97;;;74.43;;
32236;SDS011;18726;44.732;10.550;2024-02-16T12:11:16;87.85;;;77.80;;
32236;SDS011;18726;44.732;10.550;2024-02-16T12:14:24;90.25;;;80.40;;
32236;SDS011;18726;44.732;10.550;2024-02-16T12:17:28;93.18;;;82.88;;
32236;SDS011;18726;44.732;10.550;2024-02-16T12:20:31;101.25;;;87.57;;
32236;SDS011;18726;44.732;10.550;2024-02-16T12:23:36;89.45;;;79.80;;
32236;SDS011;18726;44.732;10.550;2024-02-16T12:26:40;95.45;;;78.82;;
32236;SDS011;18726;44.732;10.550;2024-02-16T12:29:44;99.32;;;88.68;;
32236;SDS011;18726;44.732;10.550;2024-02-16T12:32:48;100.05;;;89.38;;
32236;SDS011;18726;44.732;10.550;2024-02-16T12:35:52;98.28;;;87.55;;
32236;SDS011;18726;44.732;10.550;2024-02-16T12:38:57;98.93;;;85.78;;
32236;SDS011;18726;44.732;10.550;2024-02-16T12:42:01;94.72;;;84.28;;
32236;SDS011;18726;44.732;10.550;2024-02-16T12:45:04;108.78;;;96.93;;
32236;SDS011;18726;44.732;10.550;2024-02-16T12:48:08;109.13;;;97.38;;
32236;SDS011;18726;44.732;10.550;2024-02-16T12:51:18;107.75;;;95.95;;
32236;SDS011;18726;44.732;10.550;2024-02-16T12:54:22;108.38;;;94.40;;
32236;SDS011;18726;44.732;10.550;2024-02-16T12:57:26;116.35;;;97.20;;
32236;SDS011;18726;44.732;10.550;2024-02-16T13:00:30;108.88;;;94.53;;
32236;SDS011;18726;44.732;10.550;2024-02-16T13:03:33;114.63;;;99.47;;
32236;SDS011;18726;44.732;10.550;2024-02-16T13:06:38;113.68;;;98.28;;
32236;SDS011;18726;44.732;10.550;2024-02-16T13:09:42;117.93;;;97.50;;
32236;SDS011;18726;44.732;10.550;2024-02-16T13:12:46;121.88;;;93.60;;
32236;SDS011;18726;44.732;10.550;2024-02-16T13:15:50;116.18;;;96.03;;
32236;SDS011;18726;44.732;10.550;2024-02-16T13:18:53;112.82;;;93.88;;
32236;SDS011;18726;44.732;10.550;2024-02-16T13:21:57;104.75;;;88.53;;
32236;SDS011;18726;44.732;10.550;2024-02-16T13:25:02;119.47;;;99.22;;
32236;SDS011;18726;44.732;10.550;2024-02-16T13:28:07;124.75;;;103.85;;
32236;SDS011;18726;44.732;10.550;2024-02-16T13:31:11;126.03;;;95.68;;
32236;SDS011;18726;44.732;10.550;2024-02-16T13:34:15;129.88;;;103.85;;
32236;SDS011;18726;44.732;10.550;2024-02-16T13:37:18;427.83;;;292.58;;
32236;SDS011;18726;44.732;10.550;2024-02-16T13:40:22;205.00;;;142.32;;
32236;SDS011;18726;44.732;10.550;2024-02-16T13:43:27;134.30;;;103.10;;
32236;SDS011;18726;44.732;10.550;2024-02-16T13:46:31;109.57;;;92.18;;
32236;SDS011;18726;44.732;10.550;2024-02-16T13:49:38;117.47;;;97.55;;
32236;SDS011;18726;44.732;10.550;2024-02-16T13:52:42;108.13;;;90.90;;
32236;SDS011;18726;44.732;10.550;2024-02-16T13:55:47;117.35;;;95.47;;
32236;SDS011;18726;44.732;10.550;2024-02-16T13:58:52;112.28;;;95.53;;
32236;SDS011;18726;44.732;10.550;2024-02-16T14:01:59;110.68;;;92.20;;
32236;SDS011;18726;44.732;10.550;2024-02-16T14:05:04;115.40;;;93.07;;
32236;SDS011;18726;44.732;10.550;2024-02-16T14:08:08;119.40;;;97.20;;
32236;SDS011;18726;44.732;10.550;2024-02-16T14:11:14;131.43;;;112.30;;
32236;SDS011;18726;44.732;10.550;2024-02-16T14:14:18;128.35;;;109.40;;
32236;SDS011;18726;44.732;10.550;2024-02-16T14:17:22;131.30;;;106.05;;
32236;SDS011;18726;44.732;10.550;2024-02-16T14:20:26;123.88;;;102.50;;
32236;SDS011;18726;44.732;10.550;2024-02-16T14:23:30;122.10;;;99.03;;
32236;SDS011;18726;44.732;10.550;2024-02-16T14:26:35;115.75;;;99.55;;
32236;SDS011;18726;44.732;10.550;2024-02-16T14:29:39;123.80;;;106.95;;
32236;SDS011;18726;44.732;10.550;2024-02-16T14:32:44;125.60;;;104.25;;
32236;SDS011;18726;44.732;10.550;2024-02-16T14:35:50;136.52;;;108.88;;
32236;SDS011;18726;44.732;10.550;2024-02-16T14:38:54;133.43;;;106.93;;
32236;SDS011;18726;44.732;10.550;2024-02-16T14:45:30;128.30;;;106.50;;
32236;SDS011;18726;44.732;10.550;2024-02-16T14:48:34;115.38;;;94.85;;
32236;SDS011;18726;44.732;10.550;2024-02-16T14:51:41;131.25;;;107.00;;
32236;SDS011;18726;44.732;10.550;2024-02-16T14:54:53;141.00;;;114.50;;
32236;SDS011;18726;44.732;10.550;2024-02-16T14:57:57;144.02;;;115.57;;
32236;SDS011;18726;44.732;10.550;2024-02-16T15:01:01;158.40;;;126.65;;
32236;SDS011;18726;44.732;10.550;2024-02-16T15:08:30;118.50;;;97.32;;
32236;SDS011;18726;44.732;10.550;2024-02-16T15:11:37;128.82;;;107.00;;
32236;SDS011;18726;44.732;10.550;2024-02-16T15:20:33;130.07;;;106.88;;
32236;SDS011;18726;44.732;10.550;2024-02-16T15:23:41;135.23;;;111.85;;
32236;SDS011;18726;44.732;10.550;2024-02-16T15:26:45;145.05;;;111.55;;
32236;SDS011;18726;44.732;10.550;2024-02-16T15:29:48;140.77;;;113.32;;
32236;SDS011;18726;44.732;10.550;2024-02-16T15:32:59;136.40;;;115.25;;
32236;SDS011;18726;44.732;10.550;2024-02-16T15:36:04;146.85;;;114.13;;
32236;SDS011;18726;44.732;10.550;2024-02-16T15:43:59;144.93;;;113.72;;
32236;SDS011;18726;44.732;10.550;2024-02-16T15:47:56;153.13;;;116.88;;
32236;SDS011;18726;44.732;10.550;2024-02-16T15:51:00;150.55;;;119.85;;
32236;SDS011;18726;44.732;10.550;2024-02-16T16:04:04;142.52;;;112.85;;
32236;SDS011;18726;44.732;10.550;2024-02-16T16:07:08;143.50;;;114.88;;
32236;SDS011;18726;44.732;10.550;2024-02-16T16:14:38;155.27;;;122.38;;
32236;SDS011;18726;44.732;10.550;2024-02-16T16:18:27;153.30;;;116.35;;
32236;SDS011;18726;44.732;10.550;2024-02-16T16:21:52;159.23;;;121.18;;
32236;SDS011;18726;44.732;10.550;2024-02-16T16:29:31;163.32;;;124.63;;
32236;SDS011;18726;44.732;10.550;2024-02-16T16:32:48;173.18;;;129.15;;
32236;SDS011;18726;44.732;10.550;2024-02-16T16:44:28;161.40;;;118.72;;
32236;SDS011;18726;44.732;10.550;2024-02-16T16:57:03;164.13;;;125.60;;
32236;SDS011;18726;44.732;10.550;2024-02-16T17:00:07;163.70;;;121.53;;
32236;SDS011;18726;44.732;10.550;2024-02-16T17:03:21;147.70;;;113.93;;
32236;SDS011;18726;44.732;10.550;2024-02-16T17:09:51;169.65;;;128.10;;
32236;SDS011;18726;44.732;10.550;2024-02-16T17:13:12;179.35;;;132.15;;
32236;SDS011;18726;44.732;10.550;2024-02-16T17:16:39;171.63;;;128.73;;
32236;SDS011;18726;44.732;10.550;2024-02-16T17:19:43;177.57;;;129.07;;
32236;SDS011;18726;44.732;10.550;2024-02-16T17:22:48;197.23;;;132.70;;
32236;SDS011;18726;44.732;10.550;2024-02-16T17:25:52;183.93;;;134.30;;
32236;SDS011;18726;44.732;10.550;2024-02-16T17:28:56;183.02;;;133.90;;
32236;SDS011;18726;44.732;10.550;2024-02-16T17:32:00;206.18;;;151.00;;
32236;SDS011;18726;44.732;10.550;2024-02-16T17:35:04;211.45;;;157.57;;
32236;SDS011;18726;44.732;10.550;2024-02-16T17:38:08;221.55;;;163.27;;
32236;SDS011;18726;44.732;10.550;2024-02-16T17:41:12;206.95;;;153.20;;
32236;SDS011;18726;44.732;10.550;2024-02-16T17:44:17;196.02;;;145.27;;
32236;SDS011;18726;44.732;10.550;2024-02-16T17:47:21;186.10;;;141.60;;
32236;SDS011;18726;44.732;10.550;2024-02-16T17:50:24;196.52;;;141.18;;
32236;SDS011;18726;44.732;10.550;2024-02-16T17:53:29;190.70;;;143.00;;
32236;SDS011;18726;44.732;10.550;2024-02-16T17:56:33;188.63;;;140.30;;
32236;SDS011;18726;44.732;10.550;2024-02-16T17:59:36;196.45;;;147.48;;
32236;SDS011;18726;44.732;10.550;2024-02-16T18:02:40;183.45;;;137.63;;
32236;SDS011;18726;44.732;10.550;2024-02-16T18:05:43;158.20;;;117.72;;
32236;SDS011;18726;44.732;10.550;2024-02-16T18:08:47;164.07;;;123.13;;
32236;SDS011;18726;44.732;10.550;2024-02-16T18:11:51;185.98;;;135.00;;
32236;SDS011;18726;44.732;10.550;2024-02-16T18:14:54;185.68;;;140.13;;
32236;SDS011;18726;44.732;10.550;2024-02-16T18:17:57;185.32;;;143.43;;
32236;SDS011;18726;44.732;10.550;2024-02-16T18:21:01;188.93;;;142.38;;
32236;SDS011;18726;44.732;10.550;2024-02-16T18:24:04;179.68;;;130.00;;
32236;SDS011;18726;44.732;10.550;2024-02-16T18:27:08;179.63;;;133.30;;
32236;SDS011;18726;44.732;10.550;2024-02-16T18:30:12;174.40;;;134.10;;
32236;SDS011;18726;44.732;10.550;2024-02-16T18:33:16;177.30;;;135.77;;
32236;SDS011;18726;44.732;10.550;2024-02-16T18:36:20;201.48;;;144.13;;
32236;SDS011;18726;44.732;10.550;2024-02-16T18:39:24;188.07;;;142.15;;
32236;SDS011;18726;44.732;10.550;2024-02-16T18:42:28;199.07;;;144.27;;
32236;SDS011;18726;44.732;10.550;2024-02-16T18:45:32;200.25;;;149.27;;